Time;durP1;ratioP1;P1;durP2;ratioP2;P2;SDS_P1;SDS_P2;PMS_P1;PMS_P2;Temp;Humidity;BMP_temperature;BMP_pressure;BME280_temperature;BME280_humidity;BME280_pressure;Samples;Min_cycle;Max_cycle;Signal;HPM_P1;HPM_P2
2022/12/11 00:00:03;;;;;;;;;;;1.70;67.30;;;-3.91;100.00;94749.19;5010252;28;20059;-47
2022/12/11 00:02:29;;;;;;;;;;;1.60;67.30;;;-3.96;100.00;94754.97;4993004;28;20004;-50
2022/12/11 00:04:57;;;;;;;;;;;1.60;67.40;;;-4.03;100.00;94759.34;5009586;28;20465;-48
2022/12/11 00:07:23;;;;;;;;;;;1.50;67.30;;;-4.08;100.00;94757.31;4991558;28;19916;-48
2022/12/11 00:09:49;;;;;;;;;;;1.50;67.40;;;-4.11;100.00;94754.28;4989962;28;19918;-48
2022/12/11 00:12:17;;;;;;;;;;;1.50;67.50;;;-4.11;100.00;94752.47;4984078;28;19916;-47
2022/12/11 00:14:43;;;;;;;;;;;1.50;67.60;;;-4.11;100.00;94756.88;5008113;28;19909;-52
2022/12/11 00:17:09;;;;;;;;;;;1.50;67.60;;;-4.13;100.00;94756.31;4997012;28;19970;-51
2022/12/11 00:19:38;;;;;;;;;;;1.50;67.60;;;-4.14;100.00;94752.88;5002986;28;19931;-47
2022/12/11 00:22:03;;;;;;;;;;;1.50;67.60;;;-4.15;100.00;94761.69;4989786;28;19913;-47
2022/12/11 00:24:35;;;;;;;;;;;1.50;67.70;;;-4.15;100.00;94760.88;5006774;28;19909;-48
2022/12/11 00:27:01;;;;;;;;;;;1.40;67.60;;;-4.20;100.00;94764.88;5010837;28;19913;-47
2022/12/11 00:29:27;;;;;;;;;;;1.40;67.60;;;-4.25;100.00;94763.84;4991014;28;19936;-55
2022/12/11 00:31:59;;;;;;;;;;;1.40;67.50;;;-4.30;100.00;94766.22;4976143;28;19909;-52
2022/12/11 00:34:25;;;;;;;;;;;1.40;67.50;;;-4.37;100.00;94765.38;4975793;28;19909;-49
2022/12/11 00:36:53;;;;;;;;;;;1.40;67.50;;;-4.41;100.00;94770.16;5001103;28;19909;-48
2022/12/11 00:39:21;;;;;;;;;;;1.30;67.30;;;-4.47;100.00;94776.91;4989956;28;19913;-48
2022/12/11 00:41:53;;;;;;;;;;;1.30;67.20;;;-4.54;100.00;94777.88;5000487;28;20007;-48
2022/12/11 00:44:25;;;;;;;;;;;1.20;67.10;;;-4.65;100.00;94774.81;5010287;28;19913;-50
2022/12/11 00:46:51;;;;;;;;;;;1.10;67.10;;;-4.77;100.00;94776.31;4973153;28;20276;-47
2022/12/11 00:49:25;;;;;;;;;;;1.00;67.00;;;-4.83;100.00;94771.06;5009131;28;19913;-47
2022/12/11 00:51:51;;;;;;;;;;;0.90;67.00;;;-4.93;100.00;94771.41;5010051;28;19966;-47
2022/12/11 00:54:20;;;;;;;;;;;0.80;67.00;;;-5.02;100.00;94775.91;5002709;28;19913;-47
2022/12/11 00:56:46;;;;;;;;;;;0.70;67.00;;;-5.08;100.00;94773.28;4973542;28;19948;-47
2022/12/11 00:59:12;;;;;;;;;;;0.60;67.00;;;-5.13;100.00;94773.84;4991455;28;20339;-51
2022/12/11 01:01:38;;;;;;;;;;;0.60;67.10;;;-5.25;100.00;94777.94;4993968;28;19919;-47
2022/12/11 01:04:04;;;;;;;;;;;0.50;67.00;;;-5.31;100.00;94779.47;4993491;28;19956;-48
2022/12/11 01:06:30;;;;;;;;;;;0.40;67.00;;;-5.38;99.76;94776.81;5010265;28;19909;-52
2022/12/11 01:11:42;;;;;;;;;;;0.20;66.90;;;-5.61;100.00;94778.78;5011346;28;20388;-49
2022/12/11 01:14:11;;;;;;;;;;;0.10;66.90;;;-5.69;100.00;94774.50;4996281;28;19909;-47
2022/12/11 01:16:40;;;;;;;;;;;0.00;66.90;;;-5.78;100.00;94778.22;5011634;28;20033;-47
2022/12/11 01:19:21;;;;;;;;;;;0.00;67.00;;;-5.87;100.00;94774.91;4983255;28;20380;-51
2022/12/11 01:21:47;;;;;;;;;;;-0.10;67.00;;;-5.90;100.00;94779.66;4986621;28;19916;-49
2022/12/11 01:24:15;;;;;;;;;;;-0.20;67.00;;;-6.02;100.00;94781.16;4993951;28;19910;-47
2022/12/11 01:26:41;;;;;;;;;;;-0.30;67.00;;;-6.09;100.00;94778.47;4976793;28;19940;-47
2022/12/11 01:29:10;;;;;;;;;;;-0.40;67.00;;;-6.15;100.00;94782.59;4998112;28;20440;-47
2022/12/11 01:31:37;;;;;;;;;;;-0.40;67.00;;;-6.20;100.00;94782.34;4995802;28;19909;-52
2022/12/11 01:34:03;;;;;;;;;;;-0.50;67.00;;;-6.29;100.00;94789.41;5012384;28;20028;-47
2022/12/11 01:36:28;;;;;;;;;;;-0.60;67.00;;;-6.35;100.00;94800.50;5011214;28;20003;-53
2022/12/11 01:38:55;;;;;;;;;;;-0.60;67.10;;;-6.46;99.39;94800.94;5012390;28;19909;-47
2022/12/11 01:41:29;;;;;;;;;;;-0.60;67.10;;;-6.55;99.84;94797.63;5009215;28;19924;-47
2022/12/11 01:44:27;;;;;;;;;;;-0.70;67.10;;;-6.71;100.00;94802.16;5012203;28;19913;-48
2022/12/11 01:46:53;;;;;;;;;;;-0.80;66.90;;;-6.76;100.00;94805.28;4998415;28;19913;-49
2022/12/11 01:49:25;;;;;;;;;;;-0.90;67.00;;;-6.83;99.96;94804.38;4979539;28;19913;-46
2022/12/11 01:52:18;;;;;;;;;;;-1.00;66.90;;;-6.96;99.99;94802.38;5011550;28;19916;-47
2022/12/11 01:54:45;;;;;;;;;;;-1.00;66.90;;;-7.03;100.00;94794.50;5007364;28;20376;-50
2022/12/11 01:57:14;;;;;;;;;;;-1.10;66.90;;;-7.08;99.64;94803.78;4992414;28;19913;-46
2022/12/11 01:59:46;;;;;;;;;;;-1.20;66.90;;;-7.20;99.37;94806.00;4995973;28;19921;-48
2022/12/11 02:02:20;;;;;;;;;;;-1.30;66.80;;;-7.30;99.93;94805.41;4975822;28;20335;-53
2022/12/11 02:04:47;;;;;;;;;;;-1.40;66.80;;;-7.33;100.00;94808.34;4975557;28;19916;-45
2022/12/11 02:07:14;;;;;;;;;;;-1.50;66.90;;;-7.32;100.00;94813.34;4977851;28;19915;-46
2022/12/11 02:09:45;;;;;;;;;;;-1.60;67.00;;;-7.36;100.00;94819.88;5011224;28;19924;-50
2022/12/11 02:12:39;;;;;;;;;;;-1.60;67.00;;;-7.51;99.79;94819.00;5010040;28;19916;-46
2022/12/11 02:15:36;;;;;;;;;;;-1.70;66.90;;;-7.56;100.00;94818.69;4995777;28;19909;-51
2022/12/11 02:18:23;;;;;;;;;;;-1.80;67.00;;;-7.66;99.77;94815.53;5010170;28;19919;-54
2022/12/11 02:21:16;;;;;;;;;;;-1.80;66.90;;;-7.78;99.43;94815.09;5010971;28;19909;-49
2022/12/11 02:24:38;;;;;;;;;;;-1.90;66.90;;;-7.89;99.88;94812.91;5010477;28;19909;-50
2022/12/11 02:27:46;;;;;;;;;;;-2.10;66.90;;;-7.96;100.00;94821.34;5011298;28;19909;-48
2022/12/11 02:30:17;;;;;;;;;;;-2.20;67.80;;;-8.03;99.89;94817.00;5000186;28;20004;-47
2022/12/11 02:32:57;;;;;;;;;;;-2.30;67.10;;;-8.16;99.90;94810.59;4975655;28;20426;-51
2022/12/11 02:35:42;;;;;;;;;;;-2.30;67.10;;;-8.24;100.00;94810.66;4966882;28;19909;-45
2022/12/11 02:38:32;;;;;;;;;;;-2.40;67.10;;;-8.24;100.00;94808.06;5012451;28;20322;-50
2022/12/11 02:41:01;;;;;;;;;;;-2.40;67.30;;;-8.28;100.00;94813.72;4993349;28;19913;-46
2022/12/11 02:43:31;;;;;;;;;;;-2.50;67.20;;;-8.37;100.00;94802.59;4982545;28;19913;-47
2022/12/11 02:45:59;;;;;;;;;;;-2.50;67.20;;;-8.41;99.71;94804.75;4994165;28;19916;-48
2022/12/11 02:48:25;;;;;;;;;;;-2.60;67.10;;;-8.48;99.35;94808.19;4981114;28;19917;-45
2022/12/11 02:51:00;;;;;;;;;;;-2.70;67.00;;;-8.55;99.58;94807.22;4992148;28;19913;-45
2022/12/11 02:53:31;;;;;;;;;;;-2.70;67.00;;;-8.56;100.00;94803.03;4996163;28;19913;-47
2022/12/11 02:56:10;;;;;;;;;;;-2.80;67.00;;;-8.62;100.00;94799.31;5010927;28;19920;-45
2022/12/11 02:59:03;;;;;;;;;;;-2.80;67.00;;;-8.67;100.00;94805.00;5010147;28;20260;-51
2022/12/11 03:01:29;;;;;;;;;;;-2.90;67.10;;;-8.69;100.00;94806.94;4997945;28;19913;-46
2022/12/11 03:03:56;;;;;;;;;;;-2.90;67.20;;;-8.70;100.00;94804.53;4974755;28;20023;-50
2022/12/11 03:06:35;;;;;;;;;;;-3.00;67.20;;;-8.71;100.00;94808.06;4990184;28;19912;-45
2022/12/11 03:09:02;;;;;;;;;;;-3.00;67.40;;;-8.73;100.00;94805.66;5011102;28;19963;-49
2022/12/11 03:11:28;;;;;;;;;;;-3.00;67.40;;;-8.72;100.00;94814.19;4992027;28;19912;-47
2022/12/11 03:13:54;;;;;;;;;;;-3.00;67.60;;;-8.74;100.00;94810.97;5001891;28;20379;-48
2022/12/11 03:16:29;;;;;;;;;;;-3.00;67.50;;;-8.68;100.00;94815.47;4974227;28;19914;-51
2022/12/11 03:19:06;;;;;;;;;;;-3.00;67.70;;;-8.66;100.00;94814.34;4985863;28;20459;-47
2022/12/11 03:22:02;;;;;;;;;;;-3.00;67.60;;;-8.68;100.00;94810.31;5010708;28;19913;-45
2022/12/11 03:24:46;;;;;;;;;;;-3.00;67.50;;;-8.78;100.00;94802.75;5004021;28;19914;-45
2022/12/11 03:27:40;;;;;;;;;;;-3.00;67.30;;;-8.90;100.00;94801.47;4974264;28;19920;-48
2022/12/11 03:30:16;;;;;;;;;;;-3.00;67.20;;;-9.00;100.00;94806.00;4993226;28;20462;-51
2022/12/11 03:33:06;;;;;;;;;;;-3.10;67.10;;;-9.02;100.00;94802.78;4979043;28;20014;-50
2022/12/11 03:35:48;;;;;;;;;;;-3.10;67.10;;;-9.01;100.00;94804.41;4984726;28;19914;-45
2022/12/11 03:38:54;;;;;;;;;;;-3.20;67.20;;;-8.99;100.00;94803.28;5010286;28;19948;-47
2022/12/11 03:41:25;;;;;;;;;;;-3.30;67.20;;;-9.07;100.00;94805.06;4963154;28;19932;-49
2022/12/11 03:43:56;;;;;;;;;;;-3.30;67.30;;;-9.10;100.00;94809.56;4980876;28;19909;-45
2022/12/11 21:38:11;;;;;;;32.35;13.55;;;-8.10;79.50;;;-11.25;100.00;94704.59;5106244;27;20452;-51
2022/12/11 21:40:40;;;;;;;32.28;14.00;;;-8.70;80.10;;;-11.19;100.00;94706.56;5084148;28;20104;-53
2022/12/11 21:43:11;;;;;;;29.73;13.05;;;-8.30;79.70;;;-11.23;100.00;94702.66;5065157;28;20023;-54
2022/12/11 21:45:36;;;;;;;32.55;14.60;;;-7.80;78.40;;;-11.23;100.00;94705.25;5072366;28;20110;-49
2022/12/11 21:48:03;;;;;;;33.97;14.68;;;-7.30;76.80;;;-11.23;100.00;94707.00;5070409;28;20497;-48
2022/12/11 21:50:29;;;;;;;32.38;12.75;;;-7.00;75.40;;;-11.25;100.00;94711.50;5065989;28;20031;-52
2022/12/11 21:53:00;;;;;;;57.28;16.30;;;-6.70;74.30;;;-11.27;100.00;94711.66;5078570;28;20062;-47
2022/12/11 21:55:33;;;;;;;33.50;15.30;;;-6.40;73.40;;;-11.21;100.00;94705.09;5067707;28;20599;-47
2022/12/11 21:58:02;;;;;;;35.20;14.65;;;-6.20;72.70;;;-11.20;100.00;94699.00;5066776;28;20032;-49
2022/12/11 22:00:28;;;;;;;38.30;14.93;;;-6.10;72.10;;;-11.19;100.00;94705.75;5063138;28;20471;-49
2022/12/11 22:02:56;;;;;;;32.67;13.68;;;-5.90;71.50;;;-11.19;100.00;94701.44;5065313;28;20020;-48
2022/12/11 22:05:22;;;;;;;30.10;13.43;;;-5.80;71.10;;;-11.17;100.00;94708.97;5055053;28;20540;-48
2022/12/11 22:07:56;;;;;;;33.25;13.93;;;-5.70;70.70;;;-11.22;100.00;94706.03;5065203;28;20032;-50
2022/12/11 22:10:22;;;;;;;30.05;13.48;;;-5.60;70.20;;;-11.23;100.00;94710.38;5075164;28;20458;-47
2022/12/11 22:12:47;;;;;;;30.67;13.50;;;-5.60;69.80;;;-11.27;100.00;94698.81;5078763;28;20024;-54
2022/12/11 22:15:13;;;;;;;37.00;15.40;;;-5.60;69.50;;;-11.29;100.00;94700.72;5048248;28;20020;-52
2022/12/11 22:17:39;;;;;;;32.70;13.75;;;-5.60;69.30;;;-11.30;100.00;94700.88;5071992;28;20431;-51
2022/12/11 22:20:06;;;;;;;31.48;12.95;;;-5.50;69.10;;;-11.31;99.69;94699.25;5087033;28;20438;-48
2022/12/11 22:22:32;;;;;;;31.83;14.52;;;-5.50;68.90;;;-11.34;99.49;94699.53;5068114;28;20085;-47
2022/12/11 22:24:58;;;;;;;31.17;12.80;;;-5.50;68.70;;;-11.36;99.56;94698.91;5080849;28;20024;-48
2022/12/11 22:27:27;;;;;;;31.77;14.30;;;-5.50;68.50;;;-11.37;99.64;94699.84;5082864;28;20036;-47
2022/12/11 22:29:55;;;;;;;29.65;12.82;;;-5.50;68.40;;;-11.39;99.54;94699.22;5076768;28;20024;-47
2022/12/11 22:32:21;;;;;;;26.75;12.77;;;-5.50;68.30;;;-11.43;98.83;94691.81;5066312;28;20077;-47
2022/12/11 22:34:47;;;;;;;28.33;13.10;;;-5.50;68.20;;;-11.45;98.65;94692.91;5071628;28;20028;-51
2022/12/11 22:37:13;;;;;;;26.42;13.02;;;-5.50;68.20;;;-11.46;99.17;94693.88;5064800;28;20062;-47
2022/12/11 22:39:39;;;;;;;27.70;13.38;;;-5.50;68.10;;;-11.49;98.69;94700.13;5072207;28;20099;-49
2022/12/11 22:42:05;;;;;;;26.38;11.68;;;-5.60;67.90;;;-11.52;99.05;94702.19;5087484;23;20183;-46
2022/12/11 22:44:31;;;;;;;31.08;13.63;;;-5.60;67.80;;;-11.52;99.25;94702.19;5045009;28;20052;-48
2022/12/11 22:46:56;;;;;;;33.33;14.10;;;-5.60;67.70;;;-11.52;99.23;94700.41;5044918;28;20024;-49
2022/12/11 22:49:28;;;;;;;24.83;12.68;;;-5.60;67.60;;;-11.51;99.22;94699.44;5032459;28;20075;-47
2022/12/11 22:51:56;;;;;;;31.90;13.48;;;-5.50;67.60;;;-11.47;99.83;94708.50;5038579;28;20415;-50
2022/12/11 22:54:23;;;;;;;30.73;14.55;;;-5.60;67.60;;;-11.42;100.00;94706.25;5033547;28;20486;-49
2022/12/11 22:56:58;;;;;;;29.17;13.63;;;-5.50;67.90;;;-11.34;100.00;94702.94;5052586;28;20039;-50
2022/12/11 22:59:29;;;;;;;37.15;14.75;;;-5.50;68.00;;;-11.24;100.00;94706.22;5050988;28;20024;-47
2022/12/11 23:01:59;;;;;;;32.47;13.50;;;-5.40;68.20;;;-11.12;100.00;94706.75;5044535;28;20395;-49
2022/12/11 23:04:25;;;;;;;37.40;15.02;;;-5.40;68.30;;;-11.02;100.00;94702.31;5032513;28;20020;-49
2022/12/11 23:06:51;;;;;;;37.10;14.95;;;-5.20;68.50;;;-10.89;100.00;94708.78;5047080;28;20429;-47
2022/12/11 23:09:20;;;;;;;38.13;15.88;;;-5.20;68.50;;;-10.79;100.00;94699.97;5050923;28;20039;-47
2022/12/11 23:11:46;;;;;;;42.58;16.83;;;-5.00;68.70;;;-10.66;100.00;94709.84;5044221;28;20021;-50
2022/12/11 23:14:17;;;;;;;42.08;16.77;;;-5.00;68.60;;;-10.55;100.00;94703.63;5031944;28;20078;-48
2022/12/11 23:16:44;;;;;;;53.38;18.63;;;-4.90;68.70;;;-10.45;100.00;94704.28;5039301;28;20498;-47
2022/12/11 23:19:11;;;;;;;46.90;18.17;;;-4.80;68.70;;;-10.33;100.00;94710.75;5048270;28;20033;-47
2022/12/11 23:21:38;;;;;;;50.78;18.20;;;-4.70;68.80;;;-10.20;100.00;94704.31;5039802;28;20024;-47
2022/12/11 23:24:10;;;;;;;39.03;16.88;;;-4.50;68.90;;;-10.10;100.00;94697.22;5025979;28;20105;-47
2022/12/11 23:26:37;;;;;;;40.35;17.80;;;-4.50;68.80;;;-9.97;100.00;94707.88;5047835;28;20025;-48
2022/12/11 23:29:06;;;;;;;42.03;16.23;;;-4.30;68.90;;;-9.89;100.00;94707.88;5046272;28;20546;-47
2022/12/11 23:31:37;;;;;;;44.17;18.35;;;-4.30;68.70;;;-9.81;100.00;94709.63;5040877;28;20440;-47
2022/12/11 23:34:09;;;;;;;82.40;18.13;;;-4.10;68.80;;;-9.76;100.00;94707.41;5033970;28;20023;-49
2022/12/11 23:36:36;;;;;;;62.60;17.87;;;-4.10;68.60;;;-9.69;100.00;94707.56;5046943;28;20488;-47
2022/12/11 23:39:02;;;;;;;82.53;20.02;;;-4.00;68.60;;;-9.65;100.00;94712.25;5066192;28;20290;-47
2022/12/11 23:41:28;;;;;;;278.55;27.98;;;-4.00;68.40;;;-9.60;100.00;94711.75;5042661;28;20027;-49
2022/12/11 23:43:54;;;;;;;54.22;18.48;;;-3.90;68.50;;;-9.53;100.00;94714.47;5051290;28;20020;-47
2022/12/11 23:46:26;;;;;;;52.58;17.23;;;-3.80;68.50;;;-9.47;100.00;94706.88;5050575;28;20025;-52
2022/12/11 23:48:54;;;;;;;48.30;16.65;;;-3.80;68.40;;;-9.43;100.00;94700.47;5033027;28;20390;-47
2022/12/11 23:51:23;;;;;;;55.22;18.92;;;-3.70;68.30;;;-9.37;100.00;94697.22;5050383;28;20432;-47
2022/12/11 23:53:51;;;;;;;61.17;18.38;;;-3.70;68.30;;;-9.33;100.00;94706.25;5043901;28;20807;-48
2022/12/11 23:56:30;;;;;;;50.33;17.77;;;-3.60;68.30;;;-9.24;100.00;94699.31;5031659;28;20043;-47
2022/12/11 23:58:57;;;;;;;43.22;17.17;;;-3.60;68.30;;;-9.21;100.00;94706.72;5038172;28;20028;-48
